Amarillo, Texas
Current Conditions -  °F | °C
As of 10:53 PM on Monday 26 Jan 2015 (Local Time) from KAMA Reporting Station
Clear Clear  
Wind Chill:   Ceiling: Unl
Heat Index:   Visibility: 10mi
Dew Point:   Wind: 6mph
Humidity: 61%   Direction: 260°W
Pressure: 30.24"   Gusts: NA
Location:  35.21°N, 101.83°W
Report Text: KAMA 270453Z 26005KT 10SM CLR 08/01 A3024 RMK AO2 SLP224 T00830011
Loading
Personal Weather Stations






























Interactive Weather Map New forecast layout! Learn more

10-Day Weather Forecast

Advertisements
Track Severe Weather on mobile